createdAt,value
2023-02-04T00:02:02.986Z,96206.53
2023-02-04T00:05:45.691Z,96225.16
2023-02-04T00:09:28.414Z,96214.06
2023-02-04T00:13:12.450Z,96221.91
2023-02-04T00:16:55.175Z,96221.34
2023-02-04T00:20:37.912Z,96220.00
2023-02-04T00:24:20.550Z,96217.78
2023-02-04T00:28:04.133Z,96208.75
2023-02-04T00:31:48.263Z,96209.81
2023-02-04T00:35:31.007Z,96225.03
2023-02-04T00:39:13.795Z,96248.91
2023-02-04T00:42:56.492Z,96250.13
2023-02-04T00:46:39.168Z,96245.06
2023-02-04T00:50:23.236Z,96242.75
2023-02-04T00:54:06.028Z,96241.38
2023-02-04T00:57:48.728Z,96240.28
2023-02-04T01:01:31.424Z,96272.31
2023-02-04T01:05:14.143Z,96257.25
2023-02-04T01:08:58.148Z,96276.31
2023-02-04T01:12:41.174Z,96273.69
2023-02-04T01:16:23.964Z,96291.91
2023-02-04T01:20:07.239Z,96280.53
2023-02-04T01:23:50.760Z,96283.56
2023-02-04T01:27:34.838Z,96276.44
2023-02-04T01:31:18.121Z,96292.59
2023-02-04T01:35:01.036Z,96276.72
2023-02-04T01:38:43.746Z,96271.78
2023-02-04T01:42:26.406Z,96275.63
2023-02-04T01:46:10.667Z,96277.94
2023-02-04T01:49:55.628Z,96304.38
2023-02-04T01:53:39.126Z,96300.53
2023-02-04T01:57:21.793Z,96305.72
2023-02-04T02:01:07.819Z,96297.78
2023-02-04T02:04:51.907Z,96309.56
2023-02-04T02:08:34.597Z,96319.69
2023-02-04T02:12:17.267Z,96307.34
2023-02-04T02:15:59.871Z,96308.72
2023-02-04T02:19:43.213Z,96314.59
2023-02-04T02:23:44.113Z,96314.75
2023-02-04T02:27:26.829Z,96325.84
2023-02-04T02:31:09.952Z,96332.03
2023-02-04T02:34:52.684Z,96339.69
2023-02-04T02:38:35.522Z,96356.81
2023-02-04T02:42:20.394Z,96352.72
2023-02-04T02:46:03.179Z,96346.41
2023-02-04T02:49:45.978Z,96334.75
2023-02-04T02:53:28.611Z,96352.56
2023-02-04T02:57:14.702Z,96342.44
2023-02-04T03:00:59.391Z,96357.50
2023-02-04T03:04:44.046Z,96356.13
2023-02-04T03:08:26.959Z,96363.81
2023-02-04T03:12:09.626Z,96356.53
2023-02-04T03:15:52.336Z,96359.41
2023-02-04T03:19:37.262Z,96371.75
2023-02-04T03:23:20.689Z,96374.34
2023-02-04T03:27:03.416Z,96373.66
2023-02-04T03:30:53.764Z,96376.69
2023-02-04T03:34:37.974Z,96384.88
2023-02-04T03:38:20.702Z,96401.72
2023-02-04T03:42:03.392Z,96407.75
2023-02-04T03:45:46.198Z,96392.00
2023-02-04T03:49:29.480Z,96403.50
2023-02-04T03:53:13.527Z,96421.59
2023-02-04T03:56:56.208Z,96426.91
2023-02-04T04:00:38.880Z,96444.84
2023-02-04T04:04:21.549Z,96445.81
2023-02-04T04:08:04.321Z,96442.94
2023-02-04T04:11:48.416Z,96462.94
2023-02-04T04:15:31.779Z,96466.34
2023-02-04T04:19:14.416Z,96463.44
2023-02-04T04:22:57.073Z,96457.25
2023-02-04T04:26:39.776Z,96461.75
2023-02-04T04:30:23.828Z,96457.63
2023-02-04T04:34:06.476Z,96465.00
2023-02-04T04:37:49.113Z,96469.09
2023-02-04T04:41:31.797Z,96478.91
2023-02-04T04:45:14.628Z,96481.34
2023-02-04T04:48:58.694Z,96489.53
2023-02-04T04:52:41.327Z,96498.03
2023-02-04T04:56:24.010Z,96512.19
2023-02-04T05:00:11.475Z,96499.06
2023-02-04T05:03:54.132Z,96516.81
2023-02-04T05:07:38.181Z,96523.28
2023-02-04T05:11:20.877Z,96515.63
2023-02-04T05:15:03.926Z,96525.31
2023-02-04T05:18:46.660Z,96527.22
2023-02-04T05:22:29.330Z,96525.81
2023-02-04T05:26:17.193Z,96520.06
2023-02-04T05:30:08.767Z,96540.03
2023-02-04T05:33:51.444Z,96536.22
2023-02-04T05:37:34.396Z,96541.41
2023-02-04T05:41:18.435Z,96546.63
2023-02-04T05:45:01.068Z,96550.16
2023-02-04T05:48:43.977Z,96561.00
2023-02-04T05:52:26.718Z,96570.13
2023-02-04T05:56:09.420Z,96572.59
2023-02-04T05:59:53.491Z,96584.50
2023-02-04T06:03:36.247Z,96587.50
2023-02-04T06:07:19.214Z,96599.97
2023-02-04T06:11:01.922Z,96600.22
2023-02-04T06:14:44.608Z,96614.19
2023-02-04T06:18:28.626Z,96617.47
2023-02-04T06:22:11.248Z,96627.88
2023-02-04T06:25:53.919Z,96635.66
2023-02-04T06:29:36.694Z,96636.63
2023-02-04T06:33:19.306Z,96646.00
2023-02-04T06:37:03.363Z,96648.03
2023-02-04T06:40:49.204Z,96651.72
2023-02-04T06:44:31.942Z,96643.09
2023-02-04T06:48:14.622Z,96654.09
2023-02-04T06:51:57.297Z,96646.75
2023-02-04T06:55:41.386Z,96643.47
2023-02-04T06:59:26.090Z,96650.31
2023-02-04T07:03:08.770Z,96665.41
2023-02-04T07:06:51.508Z,96659.38
2023-02-04T07:10:34.524Z,96658.44
2023-02-04T07:14:19.483Z,96672.25
2023-02-04T07:18:02.121Z,96682.66
2023-02-04T07:21:44.825Z,96687.34
2023-02-04T07:25:27.619Z,96690.91
2023-02-04T07:29:14.833Z,96698.44
2023-02-04T07:33:07.627Z,96706.94
2023-02-04T07:36:50.483Z,96706.13
2023-02-04T07:40:33.767Z,96715.22
2023-02-04T07:44:16.763Z,96717.13
2023-02-04T07:47:59.399Z,96728.94
2023-02-04T07:51:43.379Z,96729.75
2023-02-04T07:55:26.121Z,96730.66
2023-02-04T07:59:08.744Z,96726.28
2023-02-04T08:02:51.492Z,96721.41
2023-02-04T08:06:34.509Z,96719.63
2023-02-04T08:10:18.867Z,96740.91
2023-02-04T08:14:01.529Z,96725.28
2023-02-04T08:17:44.386Z,96733.78
2023-02-04T08:21:27.110Z,96751.38
2023-02-04T08:25:11.676Z,96752.31
2023-02-04T08:28:56.437Z,96763.78
2023-02-04T08:32:39.351Z,96757.81
2023-02-04T08:36:23.951Z,96775.78
2023-02-04T08:40:07.538Z,96772.81
2023-02-04T08:43:50.205Z,96779.03
2023-02-04T08:47:34.238Z,96782.56
2023-02-04T08:51:17.016Z,96774.41
2023-02-04T08:55:00.511Z,96779.09
2023-02-04T08:58:43.619Z,96781.94
2023-02-04T09:02:26.377Z,96790.00
2023-02-04T09:06:10.455Z,96791.22
2023-02-04T09:09:53.794Z,96792.00
2023-02-04T09:13:36.546Z,96798.06
2023-02-04T09:17:19.184Z,96809.44
2023-02-04T09:21:01.895Z,96809.44
2023-02-04T09:24:45.881Z,96805.31
2023-02-04T09:28:28.582Z,96800.66
2023-02-04T09:32:11.374Z,96809.88
2023-02-04T09:35:54.156Z,96819.38
2023-02-04T09:39:36.853Z,96817.25
2023-02-04T09:43:25.115Z,96829.66
2023-02-04T09:47:07.845Z,96825.91
2023-02-04T09:50:51.056Z,96828.50
2023-02-04T09:54:34.879Z,96843.88
2023-02-04T09:58:22.106Z,96845.97
2023-02-04T10:02:12.526Z,96843.84
2023-02-04T10:05:55.202Z,96827.59
2023-02-04T10:09:37.863Z,96837.28
2023-02-04T10:13:25.740Z,96844.31
2023-02-04T10:17:09.566Z,96842.97
2023-02-04T10:20:56.689Z,96860.13
2023-02-04T10:24:39.475Z,96855.81
2023-02-04T10:28:34.323Z,96857.59
2023-02-04T10:32:28.405Z,96854.16
2023-02-04T10:36:11.061Z,96844.59
2023-02-04T10:39:53.817Z,96844.28
2023-02-04T10:43:37.814Z,96839.63
2023-02-04T10:47:22.391Z,96849.75
2023-02-04T10:51:05.313Z,96842.50
2023-02-04T10:54:48.524Z,96844.22
2023-02-04T10:58:32.001Z,96842.56
2023-02-04T11:02:33.416Z,96845.25
2023-02-04T11:06:19.273Z,96851.16
2023-02-04T11:10:01.979Z,96851.50
2023-02-04T11:13:46.218Z,96861.72
2023-02-04T11:17:33.014Z,96859.53
2023-02-04T11:21:19.331Z,96848.00
2023-02-04T11:25:02.036Z,96856.50
2023-02-04T11:29:09.898Z,96860.34
2023-02-04T11:33:03.812Z,96851.00
2023-02-04T11:36:58.739Z,96856.44
2023-02-04T11:40:42.903Z,96853.44
2023-02-04T11:44:25.673Z,96866.78
2023-02-04T11:48:14.963Z,96863.63
2023-02-04T11:52:15.151Z,96860.94
2023-02-04T11:55:57.900Z,96866.75
2023-02-04T11:59:43.648Z,96862.38
2023-02-04T12:03:30.668Z,96864.38
2023-02-04T12:07:14.074Z,96863.13
2023-02-04T12:11:07.470Z,96863.53
2023-02-04T12:14:58.108Z,96865.19
2023-02-04T12:18:42.167Z,96867.75
2023-02-04T12:22:24.968Z,96867.97
2023-02-04T12:26:08.636Z,96868.25
2023-02-04T12:29:51.442Z,96860.34
2023-02-04T12:33:34.131Z,96862.91
2023-02-04T12:37:18.209Z,96856.06
2023-02-04T12:41:01.256Z,96852.25
2023-02-04T12:44:44.531Z,96851.72
2023-02-04T12:48:27.347Z,96857.47
2023-02-04T12:52:10.135Z,96860.47
2023-02-04T12:55:54.867Z,96856.88
2023-02-04T12:59:38.500Z,96852.06
2023-02-04T13:03:22.752Z,96854.97
2023-02-04T13:07:07.269Z,96839.47
2023-02-04T13:10:52.247Z,96840.72
2023-02-04T13:14:36.364Z,96844.00
2023-02-04T13:18:19.394Z,96842.09
2023-02-04T13:22:02.331Z,96846.81
2023-02-04T13:25:45.218Z,96847.03
2023-02-04T13:29:27.954Z,96853.63
2023-02-04T13:33:12.016Z,96860.22
2023-02-04T13:36:55.122Z,96860.75
2023-02-04T13:40:39.262Z,96879.28
2023-02-04T13:44:21.984Z,96876.06
2023-02-04T13:48:04.897Z,96894.94
2023-02-04T13:51:48.952Z,96889.06
2023-02-04T13:55:33.226Z,96903.78
2023-02-04T13:59:16.079Z,96904.22
2023-02-04T14:02:58.728Z,96912.66
2023-02-04T14:06:43.667Z,96917.88
2023-02-04T14:10:27.789Z,96922.63
2023-02-04T14:14:10.506Z,96920.13
2023-02-04T14:17:53.435Z,96924.28
2023-02-04T14:21:36.136Z,96927.91
2023-02-04T14:25:18.826Z,96924.25
2023-02-04T14:29:04.367Z,96929.25
2023-02-04T14:32:47.112Z,96934.75
2023-02-04T14:36:29.837Z,96931.19
2023-02-04T14:40:13.933Z,96941.44
2023-02-04T14:43:59.991Z,96941.53
2023-02-04T14:47:44.103Z,96945.16
2023-02-04T14:51:26.804Z,96951.84
2023-02-04T14:55:10.446Z,96945.00
2023-02-04T14:58:53.070Z,96942.22
2023-02-04T15:02:35.967Z,96946.16
2023-02-04T15:06:20.147Z,96946.72
2023-02-04T15:10:03.412Z,96947.88
2023-02-04T15:13:46.182Z,96948.88
2023-02-04T15:17:29.011Z,96945.84
2023-02-04T15:21:11.670Z,96944.69
2023-02-04T15:24:55.658Z,96939.34
2023-02-04T15:28:38.394Z,96958.41
2023-02-04T15:32:21.084Z,96963.63
2023-02-04T15:36:03.802Z,96972.88
2023-02-04T15:39:46.424Z,96972.88
2023-02-04T15:43:30.601Z,96983.78
2023-02-04T15:47:13.229Z,96989.84
2023-02-04T15:50:56.366Z,96985.44
2023-02-04T15:54:40.166Z,96988.19
2023-02-04T15:58:22.884Z,96998.13
2023-02-04T16:02:06.877Z,97002.63
2023-02-04T16:05:49.638Z,96995.91
2023-02-04T16:09:32.281Z,96998.75
2023-02-04T16:13:14.992Z,96995.78
2023-02-04T16:16:57.668Z,96994.50
2023-02-04T16:20:41.783Z,97003.25
2023-02-04T16:24:24.494Z,97003.41
2023-02-04T16:28:07.213Z,97010.41
2023-02-04T16:31:50.326Z,97013.47
2023-02-04T16:35:33.326Z,97026.25
2023-02-04T16:39:17.809Z,97023.19
2023-02-04T16:43:00.474Z,97035.94
2023-02-04T16:46:43.242Z,97038.28
2023-02-04T16:50:25.968Z,97039.25
2023-02-04T16:54:09.892Z,97035.94
2023-02-04T16:57:53.904Z,97044.44
2023-02-04T17:01:36.654Z,97042.78
2023-02-04T17:05:19.532Z,97043.72
2023-02-04T17:09:02.332Z,97049.16
2023-02-04T17:12:45.032Z,97057.44
2023-02-04T17:16:29.601Z,97069.59
2023-02-04T17:20:12.610Z,97062.16
2023-02-04T17:23:56.094Z,97067.13
2023-02-04T17:27:38.780Z,97069.84
2023-02-04T17:31:22.804Z,97067.13
2023-02-04T17:35:07.574Z,97079.19
2023-02-04T17:38:50.265Z,97078.94
2023-02-04T17:42:32.929Z,97074.34
2023-02-04T17:46:15.832Z,97077.28
2023-02-04T17:49:58.546Z,97077.53
2023-02-04T17:53:42.677Z,97079.19
2023-02-04T17:57:25.295Z,97081.06
2023-02-04T18:01:12.209Z,97097.13
2023-02-04T18:04:56.170Z,97083.28
2023-02-04T18:08:42.697Z,97087.41
2023-02-04T18:12:25.315Z,97102.97
2023-02-04T18:16:20.607Z,97101.09
2023-02-04T18:20:03.261Z,97093.41
2023-02-04T18:23:47.404Z,97085.16
2023-02-04T18:27:31.920Z,97091.19
2023-02-04T18:31:41.141Z,97096.38
2023-02-04T18:35:40.141Z,97085.03
2023-02-04T18:39:29.018Z,97084.81
2023-02-04T18:43:24.655Z,97092.59
2023-02-04T18:47:13.902Z,97093.78
2023-02-04T18:50:56.585Z,97090.69
2023-02-04T18:54:42.255Z,97091.78
2023-02-04T18:58:29.843Z,97087.00
2023-02-04T19:02:29.168Z,97100.66
2023-02-04T19:06:25.388Z,97097.78
2023-02-04T19:10:26.871Z,97113.81
2023-02-04T19:14:18.765Z,97105.31
2023-02-04T19:18:05.172Z,97102.91
2023-02-04T19:21:48.911Z,97105.94
2023-02-04T19:25:35.538Z,97098.97
2023-02-04T19:29:37.999Z,97098.03
2023-02-04T19:33:24.336Z,97095.66
2023-02-04T19:37:17.389Z,97094.09
2023-02-04T19:41:01.476Z,97092.22
2023-02-04T19:44:45.705Z,97090.34
2023-02-04T19:48:34.548Z,97092.53
2023-02-04T19:52:34.755Z,97098.78
2023-02-04T19:56:29.517Z,97098.22
2023-02-04T20:00:29.656Z,97105.22
2023-02-04T20:04:15.482Z,97102.28
2023-02-04T20:08:01.163Z,97106.00
2023-02-04T20:12:00.385Z,97098.28
2023-02-04T20:15:44.094Z,97105.97
2023-02-04T20:19:29.249Z,97107.22
2023-02-04T20:23:19.795Z,97111.84
2023-02-04T20:27:13.600Z,97112.47
2023-02-04T20:30:58.916Z,97106.25
2023-02-04T20:34:42.034Z,97101.16
2023-02-04T20:38:24.679Z,97113.94
2023-02-04T20:42:24.488Z,97113.72
2023-02-04T20:46:08.752Z,97117.03
2023-02-04T20:49:55.146Z,97115.66
2023-02-04T20:53:39.010Z,97124.03
2023-02-04T20:57:23.059Z,97137.56
2023-02-04T21:01:19.646Z,97126.84
2023-02-04T21:05:02.425Z,97134.34
2023-02-04T21:08:46.158Z,97140.63
2023-02-04T21:12:30.192Z,97156.84
2023-02-04T21:16:12.869Z,97153.31
2023-02-04T21:19:55.558Z,97151.03
2023-02-04T21:23:39.116Z,97144.78
2023-02-04T21:27:23.108Z,97140.25
2023-02-04T21:31:07.287Z,97140.69
2023-02-04T21:34:50.017Z,97146.06
2023-02-04T21:38:32.673Z,97144.84
2023-02-04T21:42:15.358Z,97146.50
2023-02-04T21:45:58.425Z,97153.34
2023-02-04T21:49:43.155Z,97144.41
2023-02-04T21:53:25.965Z,97152.00
2023-02-04T21:57:08.599Z,97158.00
2023-02-04T22:00:51.246Z,97155.00
2023-02-04T22:04:33.894Z,97162.47
2023-02-04T22:08:17.933Z,97167.44
2023-02-04T22:12:00.866Z,97164.72
2023-02-04T22:15:43.683Z,97161.31
2023-02-04T22:19:26.704Z,97158.50
2023-02-04T22:23:09.436Z,97170.75
2023-02-04T22:26:53.965Z,97171.38
2023-02-04T22:30:37.695Z,97179.03
2023-02-04T22:34:20.387Z,97186.84
2023-02-04T22:38:03.385Z,97178.84
2023-02-04T22:41:46.179Z,97173.06
2023-02-04T22:45:30.239Z,97173.25
2023-02-04T22:49:13.797Z,97167.25
2023-02-04T22:52:56.528Z,97176.78
2023-02-04T22:56:39.245Z,97168.06
2023-02-04T23:00:22.297Z,97155.41
2023-02-04T23:04:06.329Z,97158.75
2023-02-04T23:07:48.988Z,97162.72
2023-02-04T23:11:31.644Z,97163.75
2023-02-04T23:15:14.978Z,97152.13
2023-02-04T23:18:57.673Z,97147.66
2023-02-04T23:22:41.742Z,97152.09
2023-02-04T23:26:24.565Z,97149.63
2023-02-04T23:30:08.291Z,97152.53
2023-02-04T23:33:50.990Z,97159.47
2023-02-04T23:37:33.925Z,97152.63
2023-02-04T23:41:18.092Z,97149.81
2023-02-04T23:45:02.904Z,97145.56
2023-02-04T23:48:45.559Z,97147.22
2023-02-04T23:52:29.360Z,97152.63
2023-02-04T23:56:12.069Z,97164.13
2023-02-04T23:59:56.179Z,97153.34
